^^
Grace C. Lehan Memorial Weather Station Historical Data
Daily Summary for July 28, 2021 Units:  Both    English   Metric
Daily Weekly Monthly Yearly
  High: Low: Average:
Temperature: 35.5 °F /  1.9 °C 30 °F /  -1.1 °C 33.5 °F /  0.8 °C
Dew Point: 32.3 °F /  0.2 °C 20.1 °F /  -6.6 °C 28 °F /  -2.2 °C
Humidity: 90% 65.8% 80%
Wind Speed: 1.5mph /  2.4km/h - 0.1mph /  0.2km/h
Wind Gust: 10mph /  16.1km/h - -
Wind- - WSW
Pressure: 29.89 in /  1012.1 hPa 29.78 in /  1008.4 hPa -
Precipitation: 0.01 in /  0.25 mm    
 
 
Tabular Data for July 28, 2021
Time Temperature Dew Point Pressure Wind Wind Speed Wind Gust Humidity Rainfall Rate (Hourly) solar
00:04 30.1 °F /  -1.1 °C 20.1 °F /  -6.6 °C 29.87in /  1011.4hPa West 0.1mph /  0.2km/h 1mph /  1.6km/h 66% 0.00in /  0mm 0 W/m2
00:09 30.1 °F /  -1.1 °C 20.1 °F /  -6.6 °C 29.87in /  1011.4hPa West 0.1mph /  0.2km/h 2mph /  3.2km/h 66% 0.00in /  0mm 0 W/m2
00:14 30.1 °F /  -1.1 °C 20.5 °F /  -6.4 °C 29.87in /  1011.4hPa West 0.4mph /  0.6km/h 5mph /  8km/h 67% 0.00in /  0mm 0 W/m2
00:19 30 °F /  -1.1 °C 20.4 °F /  -6.4 °C 29.87in /  1011.4hPa West 0.5mph /  0.8km/h 5mph /  8km/h 67% 0.00in /  0mm 0 W/m2
00:24 30.1 °F /  -1.1 °C 20.5 °F /  -6.4 °C 29.86in /  1011.1hPa West 0.2mph /  0.3km/h 5mph /  8km/h 67% 0.00in /  0mm 0 W/m2
00:29 30.1 °F /  -1.1 °C 20.5 °F /  -6.4 °C 29.87in /  1011.4hPa West 0.1mph /  0.2km/h 5mph /  8km/h 67% 0.00in /  0mm 0 W/m2
00:34 30.2 °F /  -1 °C 20.6 °F /  -6.3 °C 29.87in /  1011.4hPa West 0.3mph /  0.5km/h 5mph /  8km/h 67% 0.00in /  0mm 0 W/m2
00:39 30.4 °F /  -0.9 °C 20.7 °F /  -6.3 °C 29.87in /  1011.4hPa West 0.3mph /  0.5km/h 3mph /  4.8km/h 67% 0.00in /  0mm 0 W/m2
00:44 30.5 °F /  -0.8 °C 20.8 °F /  -6.2 °C 29.87in /  1011.4hPa Calm   3mph /  4.8km/h 67% 0.00in /  0mm 0 W/m2
00:49 30.6 °F /  -0.8 °C 21 °F /  -6.1 °C 29.87in /  1011.4hPa West 0.1mph /  0.2km/h 3mph /  4.8km/h 67% 0.00in /  0mm 0 W/m2
00:54 30.7 °F /  -0.7 °C 21.1 °F /  -6.1 °C 29.87in /  1011.4hPa West 0.5mph /  0.8km/h 4mph /  6.4km/h 67% 0.00in /  0mm 0 W/m2
00:59 30.8 °F /  -0.7 °C 21 °F /  -6.1 °C 29.87in /  1011.4hPa West 0.6mph /  1km/h 6mph /  9.7km/h 66.4% 0.00in /  0mm 0 W/m2
01:00 30.9 °F /  -0.6 °C 20.9 °F /  -6.2 °C 29.87in /  1011.4hPa Calm   6mph /  9.7km/h 66% 0.00in /  0mm 0 W/m2
01:30 31 °F /  -0.6 °C 21 °F /  -6.1 °C 29.87in /  1011.4hPa WSW 1mph /  1.6km/h 5mph /  8km/h 66% 0.00in /  0mm 0 W/m2
02:00 31.1 °F /  -0.5 °C 21.1 °F /  -6.1 °C 29.87in /  1011.4hPa Calm   6mph /  9.7km/h 66% 0.00in /  0mm 0 W/m2
02:30 31.2 °F /  -0.4 °C 21.2 °F /  -6 °C 29.88in /  1011.7hPa Calm   6mph /  9.7km/h 66% 0.00in /  0mm 0 W/m2
03:00 30.8 °F /  -0.7 °C 20.8 °F /  -6.2 °C 29.87in /  1011.4hPa WSW 1mph /  1.6km/h 6mph /  9.7km/h 66% 0.00in /  0mm 0 W/m2
03:30 31 °F /  -0.6 °C 21.3 °F /  -5.9 °C 29.86in /  1011.1hPa WSW 1mph /  1.6km/h 9mph /  14.5km/h 67% 0.00in /  0mm 0 W/m2
04:04 31.5 °F /  -0.3 °C 21.9 °F /  -5.6 °C 29.87in /  1011.4hPa WSW 1.4mph /  2.3km/h 9mph /  14.5km/h 67% 0.00in /  0mm 0 W/m2
04:09 31.6 °F /  -0.2 °C 21.9 °F /  -5.6 °C 29.87in /  1011.4hPa WSW 1.5mph /  2.4km/h 5mph /  8km/h 66.8% 0.00in /  0mm 0 W/m2
04:14 31.7 °F /  -0.2 °C 21.7 °F /  -5.7 °C 29.87in /  1011.4hPa WSW 1.3mph /  2.1km/h 5mph /  8km/h 66% 0.00in /  0mm 0 W/m2
04:19 31.8 °F /  -0.1 °C 21.7 °F /  -5.7 °C 29.88in /  1011.7hPa WSW 1.4mph /  2.3km/h 7mph /  11.3km/h 65.8% 0.00in /  0mm 0 W/m2
04:24 31.9 °F /  -0.1 °C 21.9 °F /  -5.6 °C 29.88in /  1011.7hPa WSW 0.8mph /  1.3km/h 7mph /  11.3km/h 66% 0.00in /  0mm 0 W/m2
04:29 32 °F /  0 °C 21.9 °F /  -5.6 °C 29.88in /  1011.7hPa WSW 0.5mph /  0.8km/h 7mph /  11.3km/h 66% 0.00in /  0mm 0 W/m2
04:34 32 °F /  0 °C 21.9 °F /  -5.6 °C 29.88in /  1011.7hPa WSW 0.1mph /  0.2km/h 7mph /  11.3km/h 65.8% 0.00in /  0mm 0 W/m2
04:39 32.1 °F /  0.1 °C 22 °F /  -5.6 °C 29.87in /  1011.4hPa WSW 0.4mph /  0.6km/h 3mph /  4.8km/h 66% 0.00in /  0mm 0 W/m2
04:44 32.1 °F /  0.1 °C 22 °F /  -5.6 °C 29.87in /  1011.4hPa Calm   3mph /  4.8km/h 66% 0.00in /  0mm 0 W/m2
04:49 32.1 °F /  0.1 °C 22 °F /  -5.6 °C 29.87in /  1011.4hPa WSW 0.2mph /  0.3km/h 3mph /  4.8km/h 66% 0.00in /  0mm 0 W/m2
04:54 32.1 °F /  0.1 °C 22 °F /  -5.6 °C 29.87in /  1011.4hPa WSW 0.3mph /  0.5km/h 3mph /  4.8km/h 66% 0.00in /  0mm 0 W/m2
04:59 32.2 °F /  0.1 °C 22.1 °F /  -5.5 °C 29.87in /  1011.4hPa WSW 1mph /  1.6km/h 4mph /  6.4km/h 66% 0.00in /  0mm 0 W/m2
05:04 32.2 °F /  0.1 °C 22.1 °F /  -5.5 °C 29.87in /  1011.4hPa WSW 0.9mph /  1.4km/h 5mph /  8km/h 66% 0.00in /  0mm 0 W/m2
05:09 32.3 °F /  0.2 °C 22.2 °F /  -5.4 °C 29.87in /  1011.4hPa WSW 0.5mph /  0.8km/h 5mph /  8km/h 66% 0.00in /  0mm 0 W/m2
05:14 32.3 °F /  0.2 °C 22.2 °F /  -5.4 °C 29.87in /  1011.4hPa West 1.1mph /  1.8km/h 10mph /  16.1km/h 66% 0.00in /  0mm 0 W/m2
05:19 32.3 °F /  0.2 °C 22.3 °F /  -5.4 °C 29.87in /  1011.4hPa West 0.3mph /  0.5km/h 10mph /  16.1km/h 66% 0.00in /  0mm 0 W/m2
05:24 32.4 °F /  0.2 °C 22.3 °F /  -5.4 °C 29.87in /  1011.4hPa WSW 0.4mph /  0.6km/h 10mph /  16.1km/h 66% 0.00in /  0mm 0 W/m2
05:29 32.4 °F /  0.2 °C 22.3 °F /  -5.4 °C 29.87in /  1011.4hPa WSW 0.5mph /  0.8km/h 10mph /  16.1km/h 66% 0.00in /  0mm 0 W/m2
05:34 32.4 °F /  0.2 °C 22.3 °F /  -5.4 °C 29.86in /  1011.1hPa WSW 0.5mph /  0.8km/h 10mph /  16.1km/h 66% 0.00in /  0mm 0 W/m2
05:39 32.4 °F /  0.2 °C 22.4 °F /  -5.3 °C 29.86in /  1011.1hPa WSW 0.9mph /  1.4km/h 6mph /  9.7km/h 66% 0.00in /  0mm 0 W/m2
05:44 32.5 °F /  0.3 °C 22.4 °F /  -5.3 °C 29.86in /  1011.1hPa WSW 0.6mph /  1km/h 6mph /  9.7km/h 66% 0.00in /  0mm 0 W/m2
05:49 32.5 °F /  0.3 °C 22.6 °F /  -5.2 °C 29.86in /  1011.1hPa WSW 0.7mph /  1.1km/h 6mph /  9.7km/h 66.6% 0.00in /  0mm 0 W/m2
05:54 32.5 °F /  0.3 °C 22.5 °F /  -5.3 °C 29.86in /  1011.1hPa SW 0.7mph /  1.1km/h 6mph /  9.7km/h 66.3% 0.00in /  0mm 0 W/m2
05:59 32.6 °F /  0.3 °C 22.7 °F /  -5.2 °C 29.86in /  1011.1hPa SW 0.4mph /  0.6km/h 6mph /  9.7km/h 66.5% 0.00in /  0mm 0 W/m2
06:04 32.6 °F /  0.3 °C 22.9 °F /  -5.1 °C 29.86in /  1011.1hPa SW 0.7mph /  1.1km/h 7mph /  11.3km/h 67.1% 0.00in /  0mm 0 W/m2
06:09 32.6 °F /  0.3 °C 23.2 °F /  -4.9 °C 29.86in /  1011.1hPa SW 1.4mph /  2.3km/h 7mph /  11.3km/h 68% 0.00in /  0mm 0 W/m2
06:14 32.6 °F /  0.3 °C 23.5 °F /  -4.7 °C 29.86in /  1011.1hPa SW 0.3mph /  0.5km/h 7mph /  11.3km/h 68.6% 0.00in /  0mm 0 W/m2
06:19 32.6 °F /  0.3 °C 23.9 °F /  -4.5 °C 29.86in /  1011.1hPa SW 0.3mph /  0.5km/h 7mph /  11.3km/h 69.9% 0.00in /  0mm 0 W/m2
06:24 32.6 °F /  0.3 °C 24 °F /  -4.4 °C 29.87in /  1011.4hPa SW 0.4mph /  0.6km/h 7mph /  11.3km/h 70.4% 0.00in /  0mm 0 W/m2
06:29 32.5 °F /  0.3 °C 24.2 °F /  -4.3 °C 29.86in /  1011.1hPa SW 0.2mph /  0.3km/h 7mph /  11.3km/h 71% 0.00in /  0mm 0 W/m2
06:34 32.4 °F /  0.2 °C 24.1 °F /  -4.4 °C 29.86in /  1011.1hPa Calm   7mph /  11.3km/h 71.2% 0.00in /  0mm 0 W/m2
06:39 32.4 °F /  0.2 °C 24.2 °F /  -4.3 °C 29.86in /  1011.1hPa SW 0.1mph /  0.2km/h 2mph /  3.2km/h 71.4% 0.00in /  0mm 0 W/m2
06:44 32.4 °F /  0.2 °C 24.4 °F /  -4.2 °C 29.87in /  1011.4hPa Calm   2mph /  3.2km/h 72% 0.00in /  0mm 0 W/m2
06:49 32.3 °F /  0.2 °C 24.3 °F /  -4.3 °C 29.87in /  1011.4hPa Calm   2mph /  3.2km/h 72% 0.00in /  0mm 0 W/m2
06:54 32.3 °F /  0.2 °C 24.3 °F /  -4.3 °C 29.87in /  1011.4hPa Calm   2mph /  3.2km/h 72% 0.00in /  0mm 0 W/m2
06:59 32.3 °F /  0.2 °C 24.3 °F /  -4.3 °C 29.87in /  1011.4hPa SW 0.4mph /  0.6km/h 6mph /  9.7km/h 72% 0.00in /  0mm 0 W/m2
07:04 32.4 °F /  0.2 °C 24.4 °F /  -4.2 °C 29.87in /  1011.4hPa SW 0.2mph /  0.3km/h 6mph /  9.7km/h 72% 0.00in /  0mm 0 W/m2
07:09 32.4 °F /  0.2 °C 24.4 °F /  -4.2 °C 29.87in /  1011.4hPa Calm   2mph /  3.2km/h 72% 0.00in /  0mm 5 W/m2
07:14 32.4 °F /  0.2 °C 24.6 °F /  -4.1 °C 29.88in /  1011.7hPa Calm   2mph /  3.2km/h 72.4% 0.00in /  0mm 11 W/m2
07:19 32.5 °F /  0.3 °C 24.6 °F /  -4.1 °C 29.88in /  1011.7hPa SW 0.1mph /  0.2km/h 2mph /  3.2km/h 72.2% 0.00in /  0mm 18 W/m2
07:24 32.5 °F /  0.3 °C 24.5 °F /  -4.2 °C 29.87in /  1011.4hPa SW 0.5mph /  0.8km/h 3mph /  4.8km/h 72.2% 0.00in /  0mm 23 W/m2
07:29 32.6 °F /  0.3 °C 24.7 °F /  -4.1 °C 29.88in /  1011.7hPa Calm   3mph /  4.8km/h 72.4% 0.00in /  0mm 30 W/m2
07:34 32.6 °F /  0.3 °C 24.8 °F /  -4 °C 29.88in /  1011.7hPa Calm   3mph /  4.8km/h 72.7% 0.00in /  0mm 35 W/m2
07:39 32.6 °F /  0.3 °C 25 °F /  -3.9 °C 29.88in /  1011.7hPa Calm     73.1% 0.00in /  0mm 39 W/m2
07:44 32.7 °F /  0.4 °C 25.3 °F /  -3.7 °C 29.88in /  1011.7hPa SW 0.4mph /  0.6km/h 3mph /  4.8km/h 74% 0.00in /  0mm 46 W/m2
07:49 32.8 °F /  0.4 °C 25.4 °F /  -3.7 °C 29.88in /  1011.7hPa Calm   3mph /  4.8km/h 74% 0.00in /  0mm 44 W/m2
07:54 32.8 °F /  0.4 °C 25.4 °F /  -3.7 °C 29.88in /  1011.7hPa Calm   3mph /  4.8km/h 74% 0.00in /  0mm 46 W/m2
07:59 32.9 °F /  0.5 °C 25.6 °F /  -3.6 °C 29.88in /  1011.7hPa Calm   3mph /  4.8km/h 74.2% 0.00in /  0mm 88 W/m2
08:04 33 °F /  0.6 °C 26 °F /  -3.3 °C 29.88in /  1011.7hPa Calm     75% 0.00in /  0mm 90 W/m2
08:09 33.1 °F /  0.6 °C 26.1 °F /  -3.3 °C 29.88in /  1011.7hPa Calm     75% 0.00in /  0mm 90 W/m2
08:14 33.2 °F /  0.7 °C 26.2 °F /  -3.2 °C 29.88in /  1011.7hPa Calm     75% 0.00in /  0mm 95 W/m2
08:19 33.3 °F /  0.7 °C 26.5 °F /  -3.1 °C 29.88in /  1011.7hPa Calm     75.8% 0.00in /  0mm 86 W/m2
08:24 33.4 °F /  0.8 °C 26.5 °F /  -3.1 °C 29.88in /  1011.7hPa SW 0.2mph /  0.3km/h 4mph /  6.4km/h 75.7% 0.00in /  0mm 86 W/m2
08:29 33.4 °F /  0.8 °C 26.4 °F /  -3.1 °C 29.88in /  1011.7hPa Calm   4mph /  6.4km/h 75.1% 0.00in /  0mm 83 W/m2
08:34 33.4 °F /  0.8 °C 26.6 °F /  -3 °C 29.88in /  1011.7hPa Calm   4mph /  6.4km/h 75.8% 0.00in /  0mm 83 W/m2
08:39 33.5 °F /  0.8 °C 26.4 °F /  -3.1 °C 29.88in /  1011.7hPa Calm     75% 0.00in /  0mm 90 W/m2
08:44 33.5 °F /  0.8 °C 26.8 °F /  -2.9 °C 29.88in /  1011.7hPa Calm     76% 0.00in /  0mm 104 W/m2
08:49 33.6 °F /  0.9 °C 26.9 °F /  -2.8 °C 29.88in /  1011.7hPa Calm     76% 0.00in /  0mm 113 W/m2
08:54 33.7 °F /  0.9 °C 27 °F /  -2.8 °C 29.88in /  1011.7hPa Calm     76% 0.00in /  0mm 116 W/m2
08:59 33.8 °F /  1 °C 27 °F /  -2.8 °C 29.88in /  1011.7hPa Calm     76% 0.00in /  0mm 114 W/m2
09:04 33.8 °F /  1 °C 27.4 °F /  -2.6 °C 29.89in /  1012.1hPa Calm     77.2% 0.00in /  0mm 128 W/m2
09:09 33.9 °F /  1.1 °C 27.1 °F /  -2.7 °C 29.89in /  1012.1hPa Calm     76% 0.00in /  0mm 135 W/m2
09:14 33.9 °F /  1.1 °C 27.2 °F /  -2.7 °C 29.89in /  1012.1hPa Calm     76% 0.00in /  0mm 134 W/m2
09:19 34 °F /  1.1 °C 27.2 °F /  -2.7 °C 29.89in /  1012.1hPa Calm     76% 0.00in /  0mm 134 W/m2
09:24 34.1 °F /  1.2 °C 27.3 °F /  -2.6 °C 29.89in /  1012.1hPa Calm     76% 0.00in /  0mm 134 W/m2
09:29 34.1 °F /  1.2 °C 27.4 °F /  -2.6 °C 29.89in /  1012.1hPa Calm     76% 0.00in /  0mm 111 W/m2
09:34 34.2 °F /  1.2 °C 27.5 °F /  -2.5 °C 29.89in /  1012.1hPa Calm     76% 0.00in /  0mm 93 W/m2
09:39 34.3 °F /  1.3 °C 27.5 °F /  -2.5 °C 29.89in /  1012.1hPa SW 0.1mph /  0.2km/h 3mph /  4.8km/h 76% 0.00in /  0mm 74 W/m2
09:44 34.3 °F /  1.3 °C 27.6 °F /  -2.4 °C 29.89in /  1012.1hPa Calm   3mph /  4.8km/h 76% 0.00in /  0mm 63 W/m2
09:49 34.3 °F /  1.3 °C 27.8 °F /  -2.3 °C 29.89in /  1012.1hPa Calm   3mph /  4.8km/h 76.7% 0.00in /  0mm 65 W/m2
09:54 34.2 °F /  1.2 °C 27.9 °F /  -2.3 °C 29.89in /  1012.1hPa Calm   3mph /  4.8km/h 77.3% 0.00in /  0mm 65 W/m2
09:59 34.2 °F /  1.2 °C 28.1 °F /  -2.2 °C 29.89in /  1012.1hPa Calm   3mph /  4.8km/h 78.1% 0.00in /  0mm 74 W/m2
10:04 34.2 °F /  1.2 °C 28.4 °F /  -2 °C 29.89in /  1012.1hPa Calm   3mph /  4.8km/h 79% 0.00in /  0mm 74 W/m2
10:09 34.1 °F /  1.2 °C 28.2 °F /  -2.1 °C 29.89in /  1012.1hPa Calm     78.8% 0.00in /  0mm 65 W/m2
10:14 34.1 °F /  1.2 °C 28.3 °F /  -2.1 °C 29.89in /  1012.1hPa Calm     79% 0.00in /  0mm 56 W/m2
10:19 34.1 °F /  1.2 °C 28.5 °F /  -1.9 °C 29.89in /  1012.1hPa Calm     79.6% 0.00in /  0mm 54 W/m2
10:24 34.1 °F /  1.2 °C 28.5 °F /  -1.9 °C 29.88in /  1011.7hPa Calm     79.6% 0.00in /  0mm 56 W/m2
10:29 34.1 °F /  1.2 °C 28.5 °F /  -1.9 °C 29.88in /  1011.7hPa Calm     80% 0.00in /  0mm 62 W/m2
10:34 34 °F /  1.1 °C 28.4 °F /  -2 °C 29.88in /  1011.7hPa Calm     80% 0.00in /  0mm 81 W/m2
10:39 33.9 °F /  1.1 °C 28.7 °F /  -1.8 °C 29.88in /  1011.7hPa SW 0.4mph /  0.6km/h 4mph /  6.4km/h 80.8% 0.00in /  0mm 88 W/m2
10:44 34 °F /  1.1 °C 28.8 °F /  -1.8 °C 29.88in /  1011.7hPa Calm   4mph /  6.4km/h 81% 0.00in /  0mm 104 W/m2
10:49 34.1 °F /  1.2 °C 28.9 °F /  -1.7 °C 29.88in /  1011.7hPa Calm   4mph /  6.4km/h 81% 0.00in /  0mm 116 W/m2
10:54 34.1 °F /  1.2 °C 28.9 °F /  -1.7 °C 29.88in /  1011.7hPa SW 0.6mph /  1km/h 4mph /  6.4km/h 81% 0.00in /  0mm 120 W/m2
10:59 34.1 °F /  1.2 °C 29.1 °F /  -1.6 °C 29.88in /  1011.7hPa Calm   4mph /  6.4km/h 81.7% 0.00in /  0mm 123 W/m2
11:04 34.1 °F /  1.2 °C 29.3 °F /  -1.5 °C 29.87in /  1011.4hPa Calm   4mph /  6.4km/h 82.5% 0.00in /  0mm 104 W/m2
11:09 34 °F /  1.1 °C 29.4 °F /  -1.4 °C 29.87in /  1011.4hPa Calm   1mph /  1.6km/h 83.1% 0.00in /  0mm 81 W/m2
11:14 33.9 °F /  1.1 °C 29.6 °F /  -1.3 °C 29.87in /  1011.4hPa Calm   1mph /  1.6km/h 84.1% 0.00in /  0mm 69 W/m2
11:19 33.9 °F /  1.1 °C 29.9 °F /  -1.2 °C 29.86in /  1011.1hPa Calm   1mph /  1.6km/h 85% 0.00in /  0mm 102 W/m2
11:24 33.9 °F /  1.1 °C 30 °F /  -1.1 °C 29.86in /  1011.1hPa Calm   1mph /  1.6km/h 85.4% 0.00in /  0mm 104 W/m2
11:29 33.9 °F /  1.1 °C 30.2 °F /  -1 °C 29.86in /  1011.1hPa Calm   1mph /  1.6km/h 86% 0.00in /  0mm 88 W/m2
11:34 33.9 °F /  1.1 °C 30.1 °F /  -1.1 °C 29.86in /  1011.1hPa Calm   1mph /  1.6km/h 86% 0.00in /  0mm 77 W/m2
11:39 33.7 °F /  0.9 °C 30.6 °F /  -0.8 °C 29.86in /  1011.1hPa Calm     88% 0.00in /  0mm 69 W/m2
11:44 33.7 °F /  0.9 °C 30.2 °F /  -1 °C 29.86in /  1011.1hPa Calm     86.8% 0.00in /  0mm 60 W/m2
11:49 33.6 °F /  0.9 °C 30.2 °F /  -1 °C 29.85in /  1010.7hPa Calm     87% 0.00in /  0mm 67 W/m2
11:54 33.5 °F /  0.8 °C 30.1 °F /  -1.1 °C 29.85in /  1010.7hPa Calm     87% 0.00in /  0mm 69 W/m2
11:59 33.4 °F /  0.8 °C 30.2 °F /  -1 °C 29.85in /  1010.7hPa Calm     87.7% 0.00in /  0mm 74 W/m2
12:00 33.4 °F /  0.8 °C 30.2 °F /  -1 °C 29.85in /  1010.7hPa Calm     88% 0.00in /  0mm 65 W/m2
12:09 33.3 °F /  0.7 °C 30.2 °F /  -1 °C 29.85in /  1010.7hPa Calm     88% 0.00in /  0mm 74 W/m2
12:14 33.3 °F /  0.7 °C 30.1 °F /  -1.1 °C 29.85in /  1010.7hPa Calm     88% 0.00in /  0mm 51 W/m2
12:19 33.2 °F /  0.7 °C 30 °F /  -1.1 °C 29.84in /  1010.4hPa Calm     88% 0.00in /  0mm 53 W/m2
12:24 33.1 °F /  0.6 °C 29.9 °F /  -1.2 °C 29.84in /  1010.4hPa Calm     88% 0.00in /  0mm 53 W/m2
12:29 33.1 °F /  0.6 °C 30 °F /  -1.1 °C 29.84in /  1010.4hPa Calm     88.2% 0.00in /  0mm 53 W/m2
12:34 33.1 °F /  0.6 °C 30.1 °F /  -1.1 °C 29.84in /  1010.4hPa Calm     88.6% 0.00in /  0mm 51 W/m2
12:39 33.2 °F /  0.7 °C 30.3 °F /  -0.9 °C 29.84in /  1010.4hPa Calm     89% 0.00in /  0mm 39 W/m2
12:44 33.2 °F /  0.7 °C 30.3 °F /  -0.9 °C 29.84in /  1010.4hPa Calm     89% 0.00in /  0mm 39 W/m2
12:49 33.3 °F /  0.7 °C 30.4 °F /  -0.9 °C 29.84in /  1010.4hPa Calm     89% 0.00in /  0mm 46 W/m2
12:54 33.3 °F /  0.7 °C 30.4 °F /  -0.9 °C 29.84in /  1010.4hPa Calm     89% 0.00in /  0mm 46 W/m2
12:59 33.3 °F /  0.7 °C 30.4 °F /  -0.9 °C 29.84in /  1010.4hPa Calm     89% 0.00in /  0mm 54 W/m2
13:04 33.3 °F /  0.7 °C 30.4 °F /  -0.9 °C 29.84in /  1010.4hPa Calm     89% 0.00in /  0mm 54 W/m2
13:09 33.5 °F /  0.8 °C 30.5 °F /  -0.8 °C 29.83in /  1010hPa Calm     88.8% 0.00in /  0mm 63 W/m2
13:14 33.5 °F /  0.8 °C 30.3 °F /  -0.9 °C 29.83in /  1010hPa Calm     88% 0.00in /  0mm 63 W/m2
13:19 33.5 °F /  0.8 °C 30.4 °F /  -0.9 °C 29.83in /  1010hPa Calm     88% 0.00in /  0mm 60 W/m2
13:24 33.5 °F /  0.8 °C 30.2 °F /  -1 °C 29.83in /  1010hPa Calm     87.5% 0.00in /  0mm 54 W/m2
13:29 33.5 °F /  0.8 °C 30.1 °F /  -1.1 °C 29.83in /  1010hPa Calm     87% 0.00in /  0mm 62 W/m2
13:34 33.6 °F /  0.9 °C 30.2 °F /  -1 °C 29.83in /  1010hPa Calm     87% 0.00in /  0mm 62 W/m2
13:39 33.7 °F /  0.9 °C 30.2 °F /  -1 °C 29.83in /  1010hPa Calm     87% 0.01in /  0.25mm 56 W/m2
13:44 33.8 °F /  1 °C 30.5 °F /  -0.8 °C 29.83in /  1010hPa Calm     87.5% 0.01in /  0.25mm 51 W/m2
13:49 33.9 °F /  1.1 °C 30.5 °F /  -0.8 °C 29.83in /  1010hPa Calm     87% 0.01in /  0.25mm 49 W/m2
13:54 34.1 °F /  1.2 °C 30.6 °F /  -0.8 °C 29.83in /  1010hPa Calm     87% 0.01in /  0.25mm 44 W/m2
13:59 34.2 °F /  1.2 °C 30.7 °F /  -0.7 °C 29.82in /  1009.7hPa Calm     87% 0.01in /  0.25mm 42 W/m2
14:04 34.3 °F /  1.3 °C 30.8 °F /  -0.7 °C 29.82in /  1009.7hPa Calm     87% 0.01in /  0.25mm 42 W/m2
14:09 34.3 °F /  1.3 °C 30.8 °F /  -0.7 °C 29.82in /  1009.7hPa Calm     86.7% 0.01in /  0.25mm 51 W/m2
14:14 34.3 °F /  1.3 °C 30.6 °F /  -0.8 °C 29.82in /  1009.7hPa Calm     86% 0.01in /  0.25mm 51 W/m2
14:19 34.3 °F /  1.3 °C 30.6 °F /  -0.8 °C 29.82in /  1009.7hPa Calm     86% 0.01in /  0.25mm 46 W/m2
14:24 34.4 °F /  1.3 °C 30.6 °F /  -0.8 °C 29.81in /  1009.4hPa Calm     86% 0.01in /  0.25mm 42 W/m2
14:29 34.4 °F /  1.3 °C 30.7 °F /  -0.7 °C 29.81in /  1009.4hPa Calm     86% 0.01in /  0.25mm 30 W/m2
14:34 34.5 °F /  1.4 °C 30.7 °F /  -0.7 °C 29.81in /  1009.4hPa Calm     86% 0.01in /  0.25mm 28 W/m2
14:39 34.5 °F /  1.4 °C 30.8 °F /  -0.7 °C 29.81in /  1009.4hPa Calm     86% 0.01in /  0.25mm 23 W/m2
14:44 34.5 °F /  1.4 °C 30.7 °F /  -0.7 °C 29.81in /  1009.4hPa Calm     86% 0.01in /  0.25mm 21 W/m2
14:49 34.4 °F /  1.3 °C 30.4 °F /  -0.9 °C 29.81in /  1009.4hPa Calm     85.1% 0.01in /  0.25mm 23 W/m2
14:54 34.3 °F /  1.3 °C 30.3 °F /  -0.9 °C 29.81in /  1009.4hPa Calm     85% 0.01in /  0.25mm 19 W/m2
14:59 34.3 °F /  1.3 °C 30.4 °F /  -0.9 °C 29.81in /  1009.4hPa Calm     85.5% 0.01in /  0.25mm 14 W/m2
15:04 34.4 °F /  1.3 °C 30.6 °F /  -0.8 °C 29.80in /  1009hPa Calm     86% 0.01in /  0.25mm 19 W/m2
15:09 34.4 °F /  1.3 °C 30.7 °F /  -0.7 °C 29.80in /  1009hPa Calm     86% 0.00in /  0mm 23 W/m2
15:14 34.4 °F /  1.3 °C 30.7 °F /  -0.7 °C 29.80in /  1009hPa Calm     86% 0.00in /  0mm 23 W/m2
15:19 34.5 °F /  1.4 °C 30.8 °F /  -0.7 °C 29.80in /  1009hPa Calm     86% 0.00in /  0mm 16 W/m2
15:24 34.6 °F /  1.4 °C 30.8 °F /  -0.7 °C 29.80in /  1009hPa Calm     86% 0.00in /  0mm 14 W/m2
15:29 34.6 °F /  1.4 °C 30.9 °F /  -0.6 °C 29.80in /  1009hPa Calm     86% 0.00in /  0mm 14 W/m2
15:34 34.6 °F /  1.4 °C 30.8 °F /  -0.7 °C 29.80in /  1009hPa Calm     85.8% 0.00in /  0mm 11 W/m2
15:39 34.6 °F /  1.4 °C 30.6 °F /  -0.8 °C 29.80in /  1009hPa Calm     85% 0.00in /  0mm 9 W/m2
15:44 34.6 °F /  1.4 °C 30.6 °F /  -0.8 °C 29.80in /  1009hPa Calm     85% 0.00in /  0mm 5 W/m2
15:49 34.6 °F /  1.4 °C 30.6 °F /  -0.8 °C 29.81in /  1009.4hPa Calm     85% 0.00in /  0mm 5 W/m2
15:54 34.6 °F /  1.4 °C 30.8 °F /  -0.7 °C 29.81in /  1009.4hPa Calm     85.7% 0.00in /  0mm 5 W/m2
15:59 34.7 °F /  1.5 °C 30.8 °F /  -0.7 °C 29.81in /  1009.4hPa Calm     85.6% 0.00in /  0mm 5 W/m2
16:00 34.7 °F /  1.5 °C 31 °F /  -0.6 °C 29.80in /  1009hPa Calm     86% 0.00in /  0mm 0 W/m2
16:09 34.7 °F /  1.5 °C 30.8 °F /  -0.7 °C 29.80in /  1009hPa Calm     85.4% 0.00in /  0mm 0 W/m2
16:14 34.7 °F /  1.5 °C 30.6 °F /  -0.8 °C 29.80in /  1009hPa Calm     85% 0.00in /  0mm 0 W/m2
16:19 34.7 °F /  1.5 °C 30.6 °F /  -0.8 °C 29.80in /  1009hPa Calm     85% 0.00in /  0mm 0 W/m2
16:24 34.6 °F /  1.4 °C 30.7 °F /  -0.7 °C 29.80in /  1009hPa Calm     85.6% 0.00in /  0mm 0 W/m2
16:29 34.6 °F /  1.4 °C 30.9 °F /  -0.6 °C 29.81in /  1009.4hPa Calm     85.9% 0.00in /  0mm 0 W/m2
16:34 34.6 °F /  1.4 °C 30.9 °F /  -0.6 °C 29.81in /  1009.4hPa Calm     86% 0.00in /  0mm 0 W/m2
16:39 34.7 °F /  1.5 °C 30.9 °F /  -0.6 °C 29.81in /  1009.4hPa Calm     86% 0.00in /  0mm 0 W/m2
16:44 34.7 °F /  1.5 °C 31 °F /  -0.6 °C 29.81in /  1009.4hPa Calm     86% 0.00in /  0mm 0 W/m2
16:49 34.7 °F /  1.5 °C 31 °F /  -0.6 °C 29.81in /  1009.4hPa Calm     86% 0.00in /  0mm 0 W/m2
16:54 34.7 °F /  1.5 °C 30.9 °F /  -0.6 °C 29.81in /  1009.4hPa Calm     86% 0.00in /  0mm 0 W/m2
16:59 34.6 °F /  1.4 °C 30.9 °F /  -0.6 °C 29.81in /  1009.4hPa Calm     86% 0.00in /  0mm 0 W/m2
17:04 34.6 °F /  1.4 °C 30.9 °F /  -0.6 °C 29.81in /  1009.4hPa Calm     86% 0.00in /  0mm 0 W/m2
17:09 34.6 °F /  1.4 °C 31.1 °F /  -0.5 °C 29.81in /  1009.4hPa Calm     87% 0.00in /  0mm 0 W/m2
17:14 34.5 °F /  1.4 °C 31.6 °F /  -0.2 °C 29.81in /  1009.4hPa Calm     89% 0.00in /  0mm 0 W/m2
17:19 34.5 °F /  1.4 °C 30.8 °F /  -0.7 °C 29.81in /  1009.4hPa Calm     86% 0.00in /  0mm 0 W/m2
17:24 34.5 °F /  1.4 °C 30.8 °F /  -0.7 °C 29.82in /  1009.7hPa Calm     86.3% 0.00in /  0mm 0 W/m2
17:29 34.5 °F /  1.4 °C 31 °F /  -0.6 °C 29.82in /  1009.7hPa Calm     87% 0.00in /  0mm 0 W/m2
17:34 34.5 °F /  1.4 °C 31 °F /  -0.6 °C 29.82in /  1009.7hPa Calm     87% 0.00in /  0mm 0 W/m2
17:39 34.5 °F /  1.4 °C 31.1 °F /  -0.5 °C 29.83in /  1010hPa Calm     87% 0.00in /  0mm 0 W/m2
17:44 34.5 °F /  1.4 °C 31.1 °F /  -0.5 °C 29.83in /  1010hPa Calm     87% 0.00in /  0mm 0 W/m2
17:49 34.6 °F /  1.4 °C 31.1 °F /  -0.5 °C 29.82in /  1009.7hPa Calm     87% 0.00in /  0mm 0 W/m2
18:00 34.6 °F /  1.4 °C 31.1 °F /  -0.5 °C 29.83in /  1010hPa Calm     87% 0.00in /  0mm 0 W/m2
18:30 34.6 °F /  1.4 °C 31.1 °F /  -0.5 °C 29.83in /  1010hPa Calm     87% 0.00in /  0mm 0 W/m2
19:00 34.6 °F /  1.4 °C 31.1 °F /  -0.5 °C 29.83in /  1010hPa Calm     87% 0.00in /  0mm 0 W/m2
19:30 34.6 °F /  1.4 °C 31.1 °F /  -0.5 °C 29.83in /  1010hPa Calm     87% 0.00in /  0mm 0 W/m2
20:04 34.5 °F /  1.4 °C 31.3 °F /  -0.4 °C 29.83in /  1010hPa Calm     88% 0.00in /  0mm 0 W/m2
20:09 34.7 °F /  1.5 °C 31.5 °F /  -0.3 °C 29.83in /  1010hPa Calm     88% 0.00in /  0mm 0 W/m2
20:14 34.9 °F /  1.6 °C 32 °F /  0 °C 29.83in /  1010hPa Calm     89% 0.00in /  0mm 0 W/m2
20:19 35 °F /  1.7 °C 32.1 °F /  0.1 °C 29.82in /  1009.7hPa Calm     89% 0.00in /  0mm 0 W/m2
20:24 35.2 °F /  1.8 °C 32.3 °F /  0.2 °C 29.82in /  1009.7hPa Calm     89% 0.00in /  0mm 0 W/m2
20:29 35.2 °F /  1.8 °C 32.3 °F /  0.2 °C 29.82in /  1009.7hPa Calm     89% 0.00in /  0mm 0 W/m2
20:34 35.3 °F /  1.8 °C 32.3 °F /  0.2 °C 29.83in /  1010hPa Calm     89% 0.00in /  0mm 0 W/m2
20:39 35.2 °F /  1.8 °C 32.1 °F /  0.1 °C 29.83in /  1010hPa Calm     88.3% 0.00in /  0mm 0 W/m2
20:44 35.2 °F /  1.8 °C 32 °F /  0 °C 29.83in /  1010hPa Calm     88% 0.00in /  0mm 0 W/m2
20:49 35.3 °F /  1.8 °C 32.1 °F /  0.1 °C 29.83in /  1010hPa Calm     88% 0.00in /  0mm 0 W/m2
20:54 35.4 °F /  1.9 °C 32.2 °F /  0.1 °C 29.82in /  1009.7hPa Calm     88% 0.00in /  0mm 0 W/m2
20:59 35.5 °F /  1.9 °C 32.3 °F /  0.2 °C 29.82in /  1009.7hPa Calm     87.9% 0.00in /  0mm 0 W/m2
21:04 35.5 °F /  1.9 °C 32 °F /  0 °C 29.83in /  1010hPa Calm     87% 0.00in /  0mm 0 W/m2
21:09 35.4 °F /  1.9 °C 31.9 °F /  -0.1 °C 29.82in /  1009.7hPa Calm     87% 0.00in /  0mm 0 W/m2
21:14 35.2 °F /  1.8 °C 31.8 °F /  -0.1 °C 29.82in /  1009.7hPa Calm     87.3% 0.00in /  0mm 0 W/m2
21:19 35.1 °F /  1.7 °C 31.4 °F /  -0.3 °C 29.82in /  1009.7hPa Calm     86.2% 0.00in /  0mm 0 W/m2
21:24 35 °F /  1.7 °C 31.5 °F /  -0.3 °C 29.81in /  1009.4hPa Calm     87% 0.00in /  0mm 0 W/m2
21:29 34.9 °F /  1.6 °C 31.4 °F /  -0.3 °C 29.81in /  1009.4hPa Calm     87% 0.00in /  0mm 0 W/m2
21:34 34.8 °F /  1.6 °C 31.3 °F /  -0.4 °C 29.81in /  1009.4hPa Calm     87% 0.00in /  0mm 0 W/m2
21:39 34.7 °F /  1.5 °C 31.2 °F /  -0.4 °C 29.81in /  1009.4hPa Calm     87% 0.00in /  0mm 0 W/m2
21:44 34.6 °F /  1.4 °C 31.1 °F /  -0.5 °C 29.81in /  1009.4hPa Calm     87% 0.00in /  0mm 0 W/m2
21:49 34.5 °F /  1.4 °C 31.2 °F /  -0.4 °C 29.81in /  1009.4hPa Calm     87.6% 0.00in /  0mm 0 W/m2
21:54 34.4 °F /  1.3 °C 31.3 °F /  -0.4 °C 29.81in /  1009.4hPa Calm     88% 0.00in /  0mm 0 W/m2
21:59 34.4 °F /  1.3 °C 31.2 °F /  -0.4 °C 29.81in /  1009.4hPa Calm     88% 0.00in /  0mm 0 W/m2
22:04 34.4 °F /  1.3 °C 31.2 °F /  -0.4 °C 29.81in /  1009.4hPa Calm     88% 0.00in /  0mm 0 W/m2
22:09 34.3 °F /  1.3 °C 31.1 °F /  -0.5 °C 29.81in /  1009.4hPa Calm     88% 0.00in /  0mm 0 W/m2
22:14 34.3 °F /  1.3 °C 31.1 °F /  -0.5 °C 29.80in /  1009hPa Calm     88% 0.00in /  0mm 0 W/m2
22:19 34.2 °F /  1.2 °C 31.1 °F /  -0.5 °C 29.81in /  1009.4hPa Calm     88% 0.00in /  0mm 0 W/m2
22:24 34.2 °F /  1.2 °C 31 °F /  -0.6 °C 29.81in /  1009.4hPa Calm     88% 0.00in /  0mm 0 W/m2
22:29 34.2 °F /  1.2 °C 31 °F /  -0.6 °C 29.80in /  1009hPa Calm     88% 0.00in /  0mm 0 W/m2
22:34 34.1 °F /  1.2 °C 30.9 °F /  -0.6 °C 29.80in /  1009hPa Calm     88% 0.00in /  0mm 0 W/m2
22:38 34.1 °F /  1.2 °C 31 °F /  -0.6 °C 29.79in /  1008.7hPa Calm     88.5% 0.00in /  0mm 0 W/m2
23:04 33.7 °F /  0.9 °C 30.8 °F /  -0.7 °C 29.79in /  1008.7hPa Calm     89% 0.00in /  0mm 0 W/m2
23:09 33.7 °F /  0.9 °C 30.8 °F /  -0.7 °C 29.79in /  1008.7hPa Calm     89% 0.00in /  0mm 0 W/m2
23:14 33.6 °F /  0.9 °C 30.7 °F /  -0.7 °C 29.80in /  1009hPa Calm     89% 0.00in /  0mm 0 W/m2
23:19 33.5 °F /  0.8 °C 30.6 °F /  -0.8 °C 29.80in /  1009hPa Calm     89% 0.00in /  0mm 0 W/m2
23:24 33.5 °F /  0.8 °C 30.6 °F /  -0.8 °C 29.79in /  1008.7hPa Calm     89% 0.00in /  0mm 0 W/m2
23:29 33.4 °F /  0.8 °C 30.8 °F /  -0.7 °C 29.80in /  1009hPa Calm     89.9% 0.00in /  0mm 0 W/m2
23:34 33.4 °F /  0.8 °C 30.8 °F /  -0.7 °C 29.80in /  1009hPa Calm     90% 0.00in /  0mm 0 W/m2
23:39 33.3 °F /  0.7 °C 30.7 °F /  -0.7 °C 29.80in /  1009hPa Calm     90% 0.00in /  0mm 0 W/m2
23:44 33.3 °F /  0.7 °C 30.7 °F /  -0.7 °C 29.79in /  1008.7hPa Calm     90% 0.00in /  0mm 0 W/m2
23:49 33.2 °F /  0.7 °C 30.6 °F /  -0.8 °C 29.79in /  1008.7hPa Calm     90% 0.00in /  0mm 0 W/m2
23:54 33.2 °F /  0.7 °C 30.6 °F /  -0.8 °C 29.79in /  1008.7hPa Calm     90% 0.00in /  0mm 0 W/m2
23:59 33.1 °F /  0.6 °C 30.5 °F /  -0.8 °C 29.78in /  1008.4hPa Calm     90% 0.00in /  0mm 0 W/m2
Hartford County Weather
Compliments of Weather Underground - 2 mb